createdAt,value
2019-01-18T00:02:34.252Z,59.25
2019-01-18T00:07:51.630Z,59.08
2019-01-18T00:13:10.117Z,58.76
2019-01-18T00:18:27.612Z,56.89
2019-01-18T00:23:45.144Z,57.24
2019-01-18T00:29:02.805Z,57.87
2019-01-18T00:34:20.703Z,58.62
2019-01-18T00:39:37.925Z,58.00
2019-01-18T00:44:55.532Z,58.00
2019-01-18T00:50:14.183Z,58.54
2019-01-18T00:55:32.128Z,58.27
2019-01-18T01:00:50.019Z,57.99
2019-01-18T01:06:07.313Z,58.74
2019-01-18T01:11:24.919Z,57.96
2019-01-18T01:16:42.173Z,57.91
2019-01-18T01:21:59.722Z,59.41
2019-01-18T01:27:16.989Z,59.28
2019-01-18T01:32:34.619Z,60.58
2019-01-18T01:37:52.240Z,66.32
2019-01-18T01:43:09.354Z,69.88
2019-01-18T01:48:27.016Z,71.26
2019-01-18T01:53:44.773Z,71.90
2019-01-18T01:59:02.111Z,73.00
2019-01-18T02:04:19.720Z,73.12
2019-01-18T02:09:37.678Z,73.09
2019-01-18T02:14:55.484Z,71.22
2019-01-18T02:20:14.409Z,71.47
2019-01-18T02:25:32.455Z,69.24
2019-01-18T02:30:50.739Z,69.00
2019-01-18T02:36:08.119Z,69.52
2019-01-18T02:41:25.214Z,68.14
2019-01-18T02:46:42.469Z,68.79
2019-01-18T02:52:00.019Z,69.24
2019-01-18T02:57:17.728Z,68.77
2019-01-18T03:02:34.878Z,68.58
2019-01-18T03:07:52.352Z,69.25
2019-01-18T03:13:10.082Z,69.61
2019-01-18T03:18:27.974Z,69.60
2019-01-18T03:23:45.985Z,69.29
2019-01-18T03:29:03.241Z,69.08
2019-01-18T03:34:20.446Z,70.37
2019-01-18T03:39:38.089Z,69.67
2019-01-18T03:44:56.076Z,70.05
2019-01-18T03:50:14.912Z,69.12
2019-01-18T03:55:32.484Z,69.62
2019-01-18T04:00:49.903Z,69.10
2019-01-18T04:06:07.706Z,67.59
2019-01-18T04:11:25.496Z,65.62
2019-01-18T04:16:44.274Z,67.79
2019-01-18T04:22:01.657Z,65.33
2019-01-18T04:27:19.286Z,65.05
2019-01-18T04:32:36.733Z,66.50
2019-01-18T04:37:54.728Z,65.73
2019-01-18T04:43:12.847Z,65.38
2019-01-18T04:48:30.626Z,66.32
2019-01-18T04:53:47.935Z,66.97
2019-01-18T04:59:05.714Z,67.00
2019-01-18T05:04:24.179Z,68.16
2019-01-18T05:09:42.381Z,68.51
2019-01-18T05:15:00.166Z,68.43
2019-01-18T05:20:17.697Z,69.82
2019-01-18T05:25:35.897Z,69.28
2019-01-18T05:30:54.279Z,69.41
2019-01-18T05:36:11.622Z,69.54
2019-01-18T05:41:28.842Z,70.00
2019-01-18T05:46:46.204Z,70.57
2019-01-18T05:52:03.915Z,70.67
2019-01-18T05:57:21.735Z,71.93
2019-01-18T06:02:39.491Z,71.94
2019-01-18T06:07:56.870Z,73.22
2019-01-18T06:13:16.191Z,75.37
2019-01-18T06:18:33.318Z,76.20
2019-01-18T06:23:50.475Z,77.35
2019-01-18T06:29:08.093Z,78.00
2019-01-18T06:34:26.074Z,77.51
2019-01-18T06:39:45.627Z,76.06
2019-01-18T06:45:04.403Z,75.29
2019-01-18T06:50:22.273Z,74.02
2019-01-18T06:55:39.957Z,72.96
2019-01-18T07:00:58.654Z,73.62
2019-01-18T07:06:16.497Z,71.63
2019-01-18T07:11:34.768Z,70.96
2019-01-18T07:16:52.864Z,70.22
2019-01-18T07:22:10.754Z,70.72
2019-01-18T07:27:28.454Z,70.05
2019-01-18T07:32:46.604Z,68.33
2019-01-18T07:38:04.086Z,68.99
2019-01-18T07:43:22.493Z,67.93
2019-01-18T07:48:40.501Z,68.70
2019-01-18T07:53:59.671Z,67.72
2019-01-18T07:59:20.994Z,68.44
2019-01-18T08:04:41.797Z,70.16
2019-01-18T08:10:01.935Z,71.64
2019-01-18T08:15:23.022Z,72.88
2019-01-18T08:20:40.936Z,74.10
2019-01-18T08:25:58.479Z,76.42
2019-01-18T08:31:15.776Z,79.27
2019-01-18T08:36:33.700Z,79.36
2019-01-18T08:41:52.004Z,77.63
2019-01-18T08:47:10.643Z,77.50
2019-01-18T08:52:28.100Z,76.51
2019-01-18T08:57:45.950Z,77.24
2019-01-18T09:03:05.368Z,77.08
2019-01-18T09:08:22.958Z,78.10
2019-01-18T09:13:42.827Z,76.78
2019-01-18T09:19:00.127Z,76.15
2019-01-18T09:24:17.993Z,75.38
2019-01-18T09:29:35.830Z,74.77
2019-01-18T09:34:54.936Z,74.42
2019-01-18T09:40:17.018Z,73.79
2019-01-18T09:45:34.694Z,71.28
2019-01-18T09:50:52.622Z,72.19
2019-01-18T09:56:10.339Z,70.19
2019-01-18T10:01:28.200Z,67.28
2019-01-18T10:06:45.691Z,66.90
2019-01-18T10:17:10.222Z,63.60
2019-01-18T10:22:27.680Z,61.68
2019-01-18T10:27:46.099Z,60.90
2019-01-18T10:33:04.360Z,58.33
2019-01-18T10:38:22.531Z,61.27
2019-01-18T10:43:41.171Z,60.33
2019-01-18T10:48:58.668Z,59.01
2019-01-18T10:54:16.628Z,61.42
2019-01-18T10:59:34.083Z,62.41
2019-01-18T11:04:52.456Z,62.18
2019-01-18T11:10:11.911Z,58.83
2019-01-18T11:15:36.262Z,59.30
2019-01-18T11:20:56.933Z,57.71
2019-01-18T11:26:15.661Z,60.66
2019-01-18T11:31:33.217Z,60.91
2019-01-18T11:36:50.930Z,59.74
2019-01-18T11:42:08.541Z,61.11
2019-01-18T11:47:25.934Z,57.95
2019-01-18T11:52:43.980Z,56.44
2019-01-18T11:58:02.585Z,58.72
2019-01-18T12:03:19.800Z,58.11
2019-01-18T12:08:36.890Z,58.43
2019-01-18T12:13:55.097Z,59.18
2019-01-18T12:19:11.975Z,60.21
2019-01-18T12:24:30.127Z,60.59
2019-01-18T12:29:49.607Z,63.50
2019-01-18T12:35:06.983Z,62.89
2019-01-18T12:40:24.136Z,61.18
2019-01-18T12:45:43.104Z,58.96
2019-01-18T12:51:00.246Z,58.95
2019-01-18T12:56:22.870Z,57.48
2019-01-18T13:01:40.148Z,59.59
2019-01-18T13:06:58.086Z,58.92
2019-01-18T13:12:15.547Z,60.78
2019-01-18T13:17:34.051Z,60.67
2019-01-18T13:22:51.688Z,60.54
2019-01-18T13:28:09.183Z,61.84
2019-01-18T13:33:26.930Z,61.85
2019-01-18T13:38:44.583Z,60.75
2019-01-18T13:44:02.118Z,57.81
2019-01-18T13:49:20.034Z,58.15
2019-01-18T13:54:38.844Z,57.10
2019-01-18T13:59:57.665Z,57.85
2019-01-18T14:05:14.961Z,58.75
2019-01-18T14:10:33.055Z,60.00
2019-01-18T14:15:50.801Z,60.73
2019-01-18T14:21:08.227Z,60.54
2019-01-18T14:26:25.630Z,60.47
2019-01-18T14:31:44.018Z,61.42
2019-01-18T14:37:01.493Z,62.23
2019-01-18T14:42:20.639Z,61.75
2019-01-18T14:47:37.930Z,62.05
2019-01-18T14:52:55.269Z,62.56
2019-01-18T14:58:13.473Z,63.25
2019-01-18T15:03:30.598Z,62.66
2019-01-18T15:08:47.716Z,64.75
2019-01-18T15:14:05.860Z,62.94
2019-01-18T15:19:23.264Z,62.13
2019-01-18T15:24:41.258Z,61.36
2019-01-18T15:29:59.224Z,62.95
2019-01-18T15:35:18.014Z,63.73
2019-01-18T15:40:36.817Z,64.56
2019-01-18T15:45:55.026Z,65.47
2019-01-18T15:51:12.647Z,66.06
2019-01-18T15:56:31.321Z,66.16
2019-01-18T16:01:50.902Z,66.71
2019-01-18T16:07:08.523Z,67.70
2019-01-18T16:12:26.406Z,66.57
2019-01-18T16:17:44.553Z,66.67
2019-01-18T16:23:03.126Z,66.85
2019-01-18T16:28:20.317Z,67.53
2019-01-18T16:33:38.011Z,67.70
2019-01-18T16:38:55.501Z,69.19
2019-01-18T16:44:12.891Z,68.24
2019-01-18T16:49:32.567Z,67.10
2019-01-18T16:54:50.313Z,67.15
2019-01-18T17:00:12.343Z,68.32
2019-01-18T17:05:30.166Z,69.05
2019-01-18T17:10:47.655Z,68.52
2019-01-18T17:16:05.458Z,69.89
2019-01-18T17:21:22.684Z,70.47
2019-01-18T17:26:39.981Z,71.37
2019-01-18T17:31:58.697Z,71.37
2019-01-18T17:37:36.277Z,71.49
2019-01-18T17:42:59.812Z,72.83
2019-01-18T17:48:22.507Z,73.39
2019-01-18T17:54:15.043Z,73.13
2019-01-18T17:59:48.576Z,73.10
2019-01-18T18:05:19.954Z,74.80
2019-01-18T18:10:55.687Z,74.26
2019-01-18T18:16:48.467Z,74.57
2019-01-18T18:22:40.846Z,74.92
2019-01-18T18:28:10.973Z,75.63
2019-01-18T18:34:03.034Z,75.61
2019-01-18T18:39:30.033Z,75.76
2019-01-18T18:45:06.704Z,76.12
2019-01-18T18:50:42.444Z,77.75
2019-01-18T18:56:27.877Z,77.01
2019-01-18T19:02:14.286Z,77.62
2019-01-18T19:07:50.161Z,78.69
2019-01-18T19:13:36.309Z,77.76
2019-01-18T19:19:11.006Z,77.94
2019-01-18T19:24:47.803Z,77.99
2019-01-18T19:30:27.515Z,78.11
2019-01-18T19:36:07.673Z,78.25
2019-01-18T19:41:53.854Z,78.43
2019-01-18T19:47:24.047Z,78.60
2019-01-18T19:53:09.825Z,79.08
2019-01-18T19:58:46.543Z,78.18
2019-01-18T20:04:27.082Z,79.10
2019-01-18T20:09:47.835Z,78.76
2019-01-18T20:15:16.575Z,78.93
2019-01-18T20:20:41.874Z,79.43
2019-01-18T20:26:13.374Z,79.12
2019-01-18T20:31:39.292Z,80.02
2019-01-18T20:37:04.097Z,80.64
2019-01-18T20:42:37.328Z,80.46
2019-01-18T20:48:07.605Z,80.35
2019-01-18T20:53:33.887Z,80.04
2019-01-18T20:59:13.771Z,79.86
2019-01-18T21:04:56.705Z,79.93
2019-01-18T21:10:24.985Z,80.21
2019-01-18T21:16:01.555Z,79.68
2019-01-18T21:21:47.374Z,79.43
2019-01-18T21:27:30.152Z,79.60
2019-01-18T21:33:07.355Z,79.91
2019-01-18T21:38:44.694Z,79.95
2019-01-18T21:44:31.350Z,79.94
2019-01-18T21:50:02.123Z,79.60
2019-01-18T21:55:41.737Z,79.23
2019-01-18T22:01:18.064Z,78.81
2019-01-18T22:07:10.421Z,79.12
2019-01-18T22:12:50.187Z,79.71
2019-01-18T22:18:20.017Z,79.69
2019-01-18T22:23:56.235Z,79.91
2019-01-18T22:29:29.538Z,79.65
2019-01-18T22:35:09.495Z,80.54
2019-01-18T22:40:53.034Z,80.40
2019-01-18T22:46:29.129Z,80.88
2019-01-18T22:52:04.366Z,80.85
2019-01-18T22:57:33.773Z,81.08
2019-01-18T23:02:54.281Z,81.04
2019-01-18T23:08:37.315Z,80.97
2019-01-18T23:14:17.680Z,81.48
2019-01-18T23:19:57.934Z,81.08
2019-01-18T23:25:20.877Z,81.29
2019-01-18T23:30:41.906Z,81.28
2019-01-18T23:36:06.207Z,81.22
2019-01-18T23:41:31.425Z,81.64
2019-01-18T23:47:17.267Z,81.89
2019-01-18T23:52:54.269Z,82.16
2019-01-18T23:58:40.178Z,82.81
